CFG5KC EDDF-LOWW
Flight info
| Callsign | CFG5KC |
|---|---|
| Flight time | 0h 54m |
| Altitude | 33000 |
| Route | SULUS7S/18 SULUS Z650 VEMUT DCT BUDEX BUDEX2W |
| Aircraft | A321/M-SDE3FGHIRWY/LB1 |
Departure
| Time | 2026-05-05 11:20 |
|---|---|
| Airport | Frankfurt Main Airport (EDDF) |
Arrival
| Time | 2026-05-05 12:15 |
|---|---|
| Airport | Vienna International Airport (LOWW) |
| Time | Latitude | Longitude | Altitude | Speed | Heading |
|---|---|---|---|---|---|
| 2026-05-05 10:53 | 50.03889 | 8.54882 | 358 ft | 0 kts | 159° |
| 2026-05-05 11:14 | 50.03886 | 8.54883 | 350 ft | 3 kts | 159° |
| 2026-05-05 11:14 | 50.03832 | 8.54916 | 356 ft | 14 kts | 160° |
| 2026-05-05 11:14 | 50.03763 | 8.54895 | 356 ft | 3 kts | 216° |
| 2026-05-05 11:15 | 50.03758 | 8.54871 | 350 ft | 8 kts | 252° |
| 2026-05-05 11:15 | 50.03734 | 8.54690 | 354 ft | 24 kts | 258° |
| 2026-05-05 11:15 | 50.03681 | 8.54407 | 345 ft | 28 kts | 250° |
| 2026-05-05 11:15 | 50.03617 | 8.54127 | 349 ft | 27 kts | 252° |
| 2026-05-05 11:16 | 50.03554 | 8.53858 | 338 ft | 26 kts | 248° |
| 2026-05-05 11:16 | 50.03490 | 8.53599 | 335 ft | 25 kts | 249° |
| 2026-05-05 11:16 | 50.03430 | 8.53347 | 336 ft | 24 kts | 251° |
| 2026-05-05 11:16 | 50.03369 | 8.53103 | 332 ft | 24 kts | 249° |
| 2026-05-05 11:17 | 50.03311 | 8.52865 | 332 ft | 22 kts | 250° |
| 2026-05-05 11:17 | 50.03285 | 8.52756 | 333 ft | 0 kts | 250° |
| 2026-05-05 11:18 | 50.03271 | 8.52695 | 333 ft | 14 kts | 251° |
| 2026-05-05 11:18 | 50.03241 | 8.52597 | 335 ft | 5 kts | 182° |
| 2026-05-05 11:18 | 50.03220 | 8.52595 | 335 ft | 0 kts | 181° |
| 2026-05-05 11:19 | 50.03158 | 8.52595 | 334 ft | 35 kts | 180° |
| 2026-05-05 11:19 | 50.02674 | 8.52601 | 332 ft | 101 kts | 179° |
| 2026-05-05 11:19 | 50.01785 | 8.52609 | 335 ft | 151 kts | 179° |
| 2026-05-05 11:19 | 50.00595 | 8.52616 | 365 ft | 187 kts | 180° |
| 2026-05-05 11:20 | 49.99270 | 8.52632 | 895 ft | 187 kts | 179° |
| 2026-05-05 11:20 | 49.97979 | 8.52708 | 1505 ft | 190 kts | 171° |
| 2026-05-05 11:20 | 49.96711 | 8.53480 | 1706 ft | 204 kts | 145° |
| 2026-05-05 11:20 | 49.95724 | 8.55157 | 1825 ft | 222 kts | 120° |
| 2026-05-05 11:21 | 49.94936 | 8.57362 | 1961 ft | 247 kts | 119° |
| 2026-05-05 11:21 | 49.94093 | 8.59734 | 2451 ft | 259 kts | 119° |
| 2026-05-05 11:21 | 49.93203 | 8.62231 | 3211 ft | 262 kts | 119° |
| 2026-05-05 11:21 | 49.92316 | 8.64712 | 3961 ft | 265 kts | 120° |
| 2026-05-05 11:22 | 49.91413 | 8.67228 | 4717 ft | 268 kts | 120° |
| 2026-05-05 11:22 | 49.90502 | 8.69764 | 5443 ft | 270 kts | 120° |
| 2026-05-05 11:22 | 49.89773 | 8.72414 | 6169 ft | 274 kts | 105° |
| 2026-05-05 11:22 | 49.89351 | 8.75314 | 6867 ft | 277 kts | 104° |
| 2026-05-05 11:23 | 49.88935 | 8.78235 | 7538 ft | 279 kts | 104° |
| 2026-05-05 11:23 | 49.88515 | 8.81198 | 8267 ft | 282 kts | 104° |
| 2026-05-05 11:23 | 49.88092 | 8.84186 | 8965 ft | 285 kts | 104° |
| 2026-05-05 11:23 | 49.87665 | 8.87194 | 9657 ft | 287 kts | 104° |
| 2026-05-05 11:24 | 49.87230 | 8.90241 | 10155 ft | 297 kts | 104° |
| 2026-05-05 11:24 | 49.86759 | 8.93483 | 10286 ft | 319 kts | 104° |
| 2026-05-05 11:24 | 49.86251 | 8.96957 | 10416 ft | 342 kts | 104° |
| 2026-05-05 11:24 | 49.85713 | 9.00654 | 10650 ft | 359 kts | 104° |
| 2026-05-05 11:25 | 49.85162 | 9.04457 | 11150 ft | 365 kts | 104° |
| 2026-05-05 11:25 | 49.84606 | 9.08314 | 11708 ft | 369 kts | 104° |
| 2026-05-05 11:25 | 49.84043 | 9.12222 | 12287 ft | 373 kts | 104° |
| 2026-05-05 11:25 | 49.83474 | 9.16155 | 12874 ft | 377 kts | 104° |
| 2026-05-05 11:26 | 49.82894 | 9.20143 | 13441 ft | 381 kts | 104° |
| 2026-05-05 11:26 | 49.82305 | 9.24160 | 13963 ft | 385 kts | 104° |
| 2026-05-05 11:26 | 49.81707 | 9.28215 | 14483 ft | 388 kts | 105° |
| 2026-05-05 11:26 | 49.81102 | 9.32292 | 15011 ft | 391 kts | 105° |
| 2026-05-05 11:27 | 49.80489 | 9.36411 | 15525 ft | 393 kts | 105° |
| 2026-05-05 11:27 | 49.79875 | 9.40542 | 16040 ft | 396 kts | 105° |
| 2026-05-05 11:27 | 49.79254 | 9.44710 | 16546 ft | 399 kts | 105° |
| 2026-05-05 11:27 | 49.78629 | 9.48898 | 17063 ft | 401 kts | 105° |
| 2026-05-05 11:28 | 49.78000 | 9.53121 | 17558 ft | 404 kts | 106° |
| 2026-05-05 11:28 | 49.77365 | 9.57364 | 18053 ft | 407 kts | 106° |
| 2026-05-05 11:28 | 49.76721 | 9.61645 | 18480 ft | 409 kts | 106° |
| 2026-05-05 11:28 | 49.76074 | 9.65942 | 18895 ft | 412 kts | 106° |
| 2026-05-05 11:29 | 49.75422 | 9.70263 | 19303 ft | 414 kts | 106° |
| 2026-05-05 11:29 | 49.74773 | 9.74554 | 19696 ft | 416 kts | 106° |
| 2026-05-05 11:29 | 49.74111 | 9.78932 | 20092 ft | 419 kts | 106° |
| 2026-05-05 11:29 | 49.73444 | 9.83318 | 20495 ft | 421 kts | 106° |
| 2026-05-05 11:30 | 49.72767 | 9.87744 | 20887 ft | 424 kts | 106° |
| 2026-05-05 11:30 | 49.72083 | 9.92181 | 21283 ft | 426 kts | 106° |
| 2026-05-05 11:30 | 49.71392 | 9.96655 | 21686 ft | 429 kts | 106° |
| 2026-05-05 11:30 | 49.70698 | 10.01143 | 22082 ft | 431 kts | 106° |
| 2026-05-05 11:31 | 49.70000 | 10.05655 | 22477 ft | 433 kts | 106° |
| 2026-05-05 11:31 | 49.69298 | 10.10195 | 22856 ft | 436 kts | 106° |
| 2026-05-05 11:31 | 49.68590 | 10.14758 | 23241 ft | 438 kts | 106° |
| 2026-05-05 11:31 | 49.67877 | 10.19349 | 23575 ft | 441 kts | 106° |
| 2026-05-05 11:32 | 49.67160 | 10.23951 | 23876 ft | 443 kts | 106° |
| 2026-05-05 11:32 | 49.66434 | 10.28597 | 24191 ft | 445 kts | 106° |
| 2026-05-05 11:32 | 49.65705 | 10.33244 | 24496 ft | 447 kts | 106° |
| 2026-05-05 11:32 | 49.64969 | 10.37918 | 24803 ft | 449 kts | 106° |
| 2026-05-05 11:33 | 49.64478 | 10.41026 | 25002 ft | 451 kts | 107° |
| 2026-05-05 11:33 | 49.63731 | 10.45737 | 25297 ft | 453 kts | 107° |
| 2026-05-05 11:33 | 49.62733 | 10.52007 | 25674 ft | 456 kts | 107° |
| 2026-05-05 11:33 | 49.61973 | 10.56768 | 25965 ft | 458 kts | 107° |
| 2026-05-05 11:34 | 49.61210 | 10.61537 | 26249 ft | 460 kts | 107° |
| 2026-05-05 11:34 | 49.60441 | 10.66339 | 26529 ft | 462 kts | 107° |
| 2026-05-05 11:34 | 49.59921 | 10.69589 | 26707 ft | 463 kts | 107° |
| 2026-05-05 11:34 | 49.59146 | 10.74422 | 26973 ft | 465 kts | 107° |
| 2026-05-05 11:35 | 49.58363 | 10.79274 | 27243 ft | 467 kts | 107° |
| 2026-05-05 11:35 | 49.57569 | 10.84146 | 27510 ft | 469 kts | 107° |
| 2026-05-05 11:35 | 49.56769 | 10.89028 | 27776 ft | 471 kts | 107° |
| 2026-05-05 11:35 | 49.55963 | 10.93936 | 28048 ft | 473 kts | 107° |
| 2026-05-05 11:36 | 49.55158 | 10.98841 | 28398 ft | 473 kts | 107° |
| 2026-05-05 11:36 | 49.54355 | 11.03754 | 28733 ft | 473 kts | 107° |
| 2026-05-05 11:36 | 49.53553 | 11.08656 | 28808 ft | 472 kts | 107° |
| 2026-05-05 11:37 | 49.51958 | 11.18385 | 28809 ft | 472 kts | 107° |
| 2026-05-05 11:37 | 49.50332 | 11.28170 | 28815 ft | 471 kts | 107° |
| 2026-05-05 11:38 | 49.48697 | 11.37935 | 28817 ft | 472 kts | 107° |
| 2026-05-05 11:38 | 49.47053 | 11.47719 | 28819 ft | 472 kts | 108° |
| 2026-05-05 11:39 | 49.45397 | 11.57469 | 28821 ft | 472 kts | 107° |
| 2026-05-05 11:39 | 49.43740 | 11.67228 | 28820 ft | 472 kts | 107° |
| 2026-05-05 11:40 | 49.42078 | 11.76995 | 28820 ft | 472 kts | 107° |
| 2026-05-05 11:40 | 49.40402 | 11.86746 | 28821 ft | 472 kts | 108° |
| 2026-05-05 11:41 | 49.38725 | 11.96428 | 28817 ft | 473 kts | 108° |
| 2026-05-05 11:41 | 49.37031 | 12.06177 | 28812 ft | 473 kts | 108° |
| 2026-05-05 11:42 | 49.35334 | 12.15913 | 28816 ft | 473 kts | 108° |
| 2026-05-05 11:42 | 49.33628 | 12.25657 | 28811 ft | 473 kts | 108° |
| 2026-05-05 11:43 | 49.31908 | 12.35387 | 28812 ft | 473 kts | 108° |
| 2026-05-05 11:43 | 49.30178 | 12.45101 | 28804 ft | 473 kts | 108° |
| 2026-05-05 11:44 | 49.28436 | 12.54825 | 28804 ft | 473 kts | 108° |
| 2026-05-05 11:44 | 49.26695 | 12.64535 | 28806 ft | 473 kts | 108° |
| 2026-05-05 11:45 | 49.24954 | 12.74246 | 28808 ft | 473 kts | 108° |
| 2026-05-05 11:45 | 49.23190 | 12.83954 | 28806 ft | 473 kts | 108° |
| 2026-05-05 11:46 | 49.21426 | 12.93590 | 28808 ft | 474 kts | 108° |
| 2026-05-05 11:46 | 49.19648 | 13.03291 | 28810 ft | 474 kts | 108° |
| 2026-05-05 11:47 | 49.17863 | 13.12991 | 28804 ft | 474 kts | 108° |
| 2026-05-05 11:47 | 49.16073 | 13.22675 | 28810 ft | 474 kts | 108° |
| 2026-05-05 11:48 | 49.13366 | 13.37203 | 28805 ft | 474 kts | 108° |
| 2026-05-05 11:48 | 49.11547 | 13.46882 | 28817 ft | 474 kts | 108° |
| 2026-05-05 11:49 | 49.09724 | 13.56527 | 28816 ft | 473 kts | 108° |
| 2026-05-05 11:49 | 49.07888 | 13.66164 | 28815 ft | 473 kts | 108° |
| 2026-05-05 11:50 | 49.06047 | 13.75802 | 28814 ft | 473 kts | 108° |
| 2026-05-05 11:50 | 49.04219 | 13.85364 | 28812 ft | 473 kts | 108° |
| 2026-05-05 11:51 | 49.02374 | 13.94979 | 28814 ft | 472 kts | 108° |
| 2026-05-05 11:51 | 49.01449 | 13.99782 | 28367 ft | 470 kts | 108° |
| 2026-05-05 11:51 | 49.00527 | 14.04546 | 27826 ft | 467 kts | 108° |
| 2026-05-05 11:52 | 48.99608 | 14.09262 | 27293 ft | 463 kts | 108° |
| 2026-05-05 11:52 | 48.98694 | 14.13945 | 26776 ft | 460 kts | 108° |
| 2026-05-05 11:52 | 48.97786 | 14.18596 | 26257 ft | 456 kts | 108° |
| 2026-05-05 11:52 | 48.96884 | 14.23203 | 25755 ft | 452 kts | 108° |
| 2026-05-05 11:53 | 48.95984 | 14.27779 | 25265 ft | 449 kts | 109° |
| 2026-05-05 11:53 | 48.94899 | 14.32199 | 24778 ft | 444 kts | 117° |
| 2026-05-05 11:53 | 48.93418 | 14.36282 | 24302 ft | 439 kts | 125° |
| 2026-05-05 11:53 | 48.91614 | 14.40003 | 23835 ft | 435 kts | 129° |
| 2026-05-05 11:54 | 48.89769 | 14.43636 | 23373 ft | 433 kts | 129° |
| 2026-05-05 11:54 | 48.87939 | 14.47256 | 22817 ft | 430 kts | 129° |
| 2026-05-05 11:54 | 48.86127 | 14.50846 | 22297 ft | 427 kts | 129° |
| 2026-05-05 11:54 | 48.84349 | 14.54369 | 21768 ft | 424 kts | 129° |
| 2026-05-05 11:55 | 48.82564 | 14.57900 | 21252 ft | 421 kts | 129° |
| 2026-05-05 11:55 | 48.80785 | 14.61412 | 20740 ft | 417 kts | 129° |
| 2026-05-05 11:55 | 48.79018 | 14.64888 | 20224 ft | 414 kts | 129° |
| 2026-05-05 11:55 | 48.77263 | 14.68330 | 19760 ft | 411 kts | 129° |
| 2026-05-05 11:56 | 48.75515 | 14.71748 | 19455 ft | 410 kts | 129° |
| 2026-05-05 11:56 | 48.73774 | 14.75152 | 19173 ft | 408 kts | 129° |
| 2026-05-05 11:56 | 48.72039 | 14.78551 | 18886 ft | 407 kts | 129° |
| 2026-05-05 11:56 | 48.70309 | 14.81934 | 18597 ft | 405 kts | 129° |
| 2026-05-05 11:57 | 48.68584 | 14.85297 | 18324 ft | 404 kts | 129° |
| 2026-05-05 11:57 | 48.66865 | 14.88644 | 18038 ft | 402 kts | 130° |
| 2026-05-05 11:57 | 48.65151 | 14.91979 | 17721 ft | 400 kts | 130° |
| 2026-05-05 11:57 | 48.63447 | 14.95284 | 17389 ft | 398 kts | 130° |
| 2026-05-05 11:58 | 48.61746 | 14.98579 | 17080 ft | 397 kts | 130° |
| 2026-05-05 11:58 | 48.60118 | 15.01939 | 16771 ft | 396 kts | 124° |
| 2026-05-05 11:58 | 48.58837 | 15.05613 | 16453 ft | 396 kts | 114° |
| 2026-05-05 11:58 | 48.57955 | 15.09555 | 16163 ft | 396 kts | 106° |
| 2026-05-05 11:59 | 48.57281 | 15.13584 | 15884 ft | 395 kts | 106° |
| 2026-05-05 11:59 | 48.56601 | 15.17596 | 15610 ft | 394 kts | 106° |
| 2026-05-05 11:59 | 48.55915 | 15.21589 | 15339 ft | 392 kts | 106° |
| 2026-05-05 11:59 | 48.55225 | 15.25559 | 15055 ft | 390 kts | 106° |
| 2026-05-05 12:00 | 48.54543 | 15.29464 | 14802 ft | 389 kts | 106° |
| 2026-05-05 12:00 | 48.53853 | 15.33399 | 14534 ft | 387 kts | 107° |
| 2026-05-05 12:00 | 48.53163 | 15.37319 | 14273 ft | 386 kts | 106° |
| 2026-05-05 12:00 | 48.52475 | 15.41226 | 13991 ft | 385 kts | 106° |
| 2026-05-05 12:01 | 48.51937 | 15.45174 | 13743 ft | 385 kts | 98° |
| 2026-05-05 12:01 | 48.51710 | 15.49186 | 13477 ft | 384 kts | 96° |
| 2026-05-05 12:01 | 48.51496 | 15.53197 | 13183 ft | 383 kts | 96° |
| 2026-05-05 12:01 | 48.51276 | 15.57183 | 12894 ft | 381 kts | 96° |
| 2026-05-05 12:02 | 48.51050 | 15.61152 | 12612 ft | 378 kts | 97° |
| 2026-05-05 12:02 | 48.50824 | 15.65094 | 12321 ft | 376 kts | 97° |
| 2026-05-05 12:02 | 48.50602 | 15.69012 | 12049 ft | 374 kts | 97° |
| 2026-05-05 12:02 | 48.50380 | 15.72904 | 11766 ft | 372 kts | 97° |
| 2026-05-05 12:03 | 48.50154 | 15.76790 | 11490 ft | 369 kts | 97° |
| 2026-05-05 12:03 | 48.49925 | 15.80634 | 11215 ft | 368 kts | 97° |
| 2026-05-05 12:03 | 48.49695 | 15.84466 | 10952 ft | 366 kts | 97° |
| 2026-05-05 12:03 | 48.49466 | 15.88273 | 10677 ft | 361 kts | 97° |
| 2026-05-05 12:04 | 48.49242 | 15.92001 | 10400 ft | 353 kts | 97° |
| 2026-05-05 12:04 | 48.49024 | 15.95636 | 10130 ft | 345 kts | 97° |
| 2026-05-05 12:04 | 48.48808 | 15.99194 | 9862 ft | 337 kts | 97° |
| 2026-05-05 12:04 | 48.48593 | 16.02681 | 9596 ft | 331 kts | 98° |
| 2026-05-05 12:05 | 48.48384 | 16.06100 | 9308 ft | 325 kts | 98° |
| 2026-05-05 12:05 | 48.48107 | 16.09455 | 9008 ft | 318 kts | 106° |
| 2026-05-05 12:05 | 48.47382 | 16.12544 | 8733 ft | 309 kts | 117° |
| 2026-05-05 12:05 | 48.46513 | 16.15478 | 8436 ft | 304 kts | 117° |
| 2026-05-05 12:06 | 48.45657 | 16.18364 | 8172 ft | 300 kts | 117° |
| 2026-05-05 12:06 | 48.44822 | 16.21173 | 7897 ft | 295 kts | 117° |
| 2026-05-05 12:06 | 48.43990 | 16.23974 | 7619 ft | 291 kts | 117° |
| 2026-05-05 12:06 | 48.43169 | 16.26743 | 7351 ft | 287 kts | 117° |
| 2026-05-05 12:07 | 48.42359 | 16.29478 | 7079 ft | 284 kts | 117° |
| 2026-05-05 12:07 | 48.41563 | 16.32160 | 6809 ft | 279 kts | 117° |
| 2026-05-05 12:07 | 48.40774 | 16.34816 | 6547 ft | 277 kts | 118° |
| 2026-05-05 12:07 | 48.39986 | 16.37451 | 6285 ft | 274 kts | 118° |
| 2026-05-05 12:08 | 48.39208 | 16.40051 | 6013 ft | 272 kts | 117° |
| 2026-05-05 12:08 | 48.38437 | 16.42630 | 5735 ft | 269 kts | 118° |
| 2026-05-05 12:08 | 48.37527 | 16.45042 | 5457 ft | 262 kts | 133° |
| 2026-05-05 12:08 | 48.36242 | 16.46911 | 5187 ft | 254 kts | 148° |
| 2026-05-05 12:09 | 48.34714 | 16.48119 | 5035 ft | 243 kts | 162° |
| 2026-05-05 12:09 | 48.33112 | 16.48833 | 4799 ft | 238 kts | 166° |
| 2026-05-05 12:09 | 48.31536 | 16.49503 | 4493 ft | 232 kts | 166° |
| 2026-05-05 12:09 | 48.30043 | 16.50141 | 4228 ft | 213 kts | 166° |
| 2026-05-05 12:10 | 48.28676 | 16.50723 | 3946 ft | 201 kts | 166° |
| 2026-05-05 12:10 | 48.27413 | 16.51263 | 3702 ft | 177 kts | 166° |
| 2026-05-05 12:10 | 48.26281 | 16.51744 | 3465 ft | 163 kts | 166° |
| 2026-05-05 12:10 | 48.25234 | 16.52190 | 3282 ft | 149 kts | 166° |
| 2026-05-05 12:11 | 48.24278 | 16.52596 | 3094 ft | 139 kts | 166° |
| 2026-05-05 12:11 | 48.23365 | 16.52984 | 2904 ft | 134 kts | 166° |
| 2026-05-05 12:11 | 48.22472 | 16.53368 | 2736 ft | 133 kts | 166° |
| 2026-05-05 12:11 | 48.21584 | 16.53751 | 2601 ft | 133 kts | 166° |
| 2026-05-05 12:12 | 48.20700 | 16.54142 | 2482 ft | 133 kts | 165° |
| 2026-05-05 12:12 | 48.19820 | 16.54537 | 2353 ft | 132 kts | 165° |
| 2026-05-05 12:12 | 48.18940 | 16.54916 | 2211 ft | 132 kts | 166° |
| 2026-05-05 12:12 | 48.18056 | 16.55264 | 2078 ft | 131 kts | 168° |
| 2026-05-05 12:13 | 48.17173 | 16.55621 | 1824 ft | 131 kts | 166° |
| 2026-05-05 12:13 | 48.16308 | 16.56010 | 1583 ft | 129 kts | 166° |
| 2026-05-05 12:13 | 48.15429 | 16.56385 | 1424 ft | 133 kts | 166° |
| 2026-05-05 12:13 | 48.14531 | 16.56741 | 1277 ft | 134 kts | 166° |
| 2026-05-05 12:14 | 48.13642 | 16.57096 | 1097 ft | 134 kts | 164° |
| 2026-05-05 12:14 | 48.12749 | 16.57484 | 837 ft | 134 kts | 162° |
| 2026-05-05 12:14 | 48.11875 | 16.57866 | 640 ft | 129 kts | 164° |
| 2026-05-05 12:14 | 48.11100 | 16.58191 | 615 ft | 86 kts | 165° |
| 2026-05-05 12:15 | 48.10777 | 16.58291 | 616 ft | 22 kts | 178° |
| 2026-05-05 12:15 | 48.10629 | 16.58255 | 613 ft | 21 kts | 195° |
| 2026-05-05 12:15 | 48.10552 | 16.58165 | 617 ft | 7 kts | 280° |
| 2026-05-05 12:15 | 48.10608 | 16.58118 | 617 ft | 16 kts | 343° |
| 2026-05-05 12:16 | 48.10749 | 16.58056 | 615 ft | 23 kts | 343° |
| 2026-05-05 12:16 | 48.10896 | 16.57997 | 618 ft | 21 kts | 343° |
| 2026-05-05 12:16 | 48.11031 | 16.57938 | 623 ft | 19 kts | 343° |
| 2026-05-05 12:16 | 48.11124 | 16.57817 | 619 ft | 20 kts | 297° |
| 2026-05-05 12:17 | 48.11184 | 16.57630 | 618 ft | 20 kts | 296° |
| 2026-05-05 12:17 | 48.11261 | 16.57396 | 615 ft | 29 kts | 296° |
| 2026-05-05 12:17 | 48.11349 | 16.57126 | 621 ft | 28 kts | 296° |
| 2026-05-05 12:17 | 48.11431 | 16.56871 | 618 ft | 26 kts | 295° |
| 2026-05-05 12:18 | 48.11509 | 16.56631 | 619 ft | 27 kts | 296° |
| 2026-05-05 12:18 | 48.11600 | 16.56357 | 615 ft | 30 kts | 296° |
| 2026-05-05 12:18 | 48.11689 | 16.56084 | 617 ft | 28 kts | 296° |
| 2026-05-05 12:18 | 48.11773 | 16.55826 | 613 ft | 27 kts | 296° |
| 2026-05-05 12:19 | 48.11837 | 16.55627 | 617 ft | 16 kts | 296° |
| 2026-05-05 12:19 | 48.11879 | 16.55599 | 615 ft | 6 kts | 25° |
| 2026-05-05 12:19 | 48.11913 | 16.55623 | 617 ft | 5 kts | 25° |
| 2026-05-05 12:19 | 48.11926 | 16.55632 | 618 ft | 2 kts | 26° |
| 2026-05-05 12:20 | 48.11927 | 16.55633 | 617 ft | 0 kts | 26° |